Time;durP1;ratioP1;P1;durP2;ratioP2;P2;SDS_P1;SDS_P2;PMS_P1;PMS_P2;Temp;Humidity;BMP_temperature;BMP_pressure;BME280_temperature;BME280_humidity;BME280_pressure;Samples;Min_cycle;Max_cycle;Signal;HPM_P1;HPM_P2
2023/11/14 00:00:52;;;;;;;26.50;17.00;;;;;;;3.97;100.00;100622.73;105742;1254;64034;-76
2023/11/14 00:03:20;;;;;;;25.90;15.10;;;;;;;3.99;100.00;100627.17;105819;1254;73068;-77
2023/11/14 03:15:11;;;;;;;36.40;20.80;;;;;;;5.17;100.00;100612.81;102623;1291;600116;-77
2023/11/14 03:17:39;;;;;;;36.00;21.20;;;;;;;5.13;100.00;100613.48;104944;1266;59940;-79
2023/11/14 03:20:07;;;;;;;41.00;21.20;;;;;;;5.14;100.00;100619.02;104810;1266;60139;-79
2023/11/14 03:22:47;;;;;;;32.40;20.50;;;;;;;5.13;100.00;100622.48;104900;1266;72015;-78
2023/11/14 03:25:15;;;;;;;80.20;42.40;;;;;;;5.12;100.00;100621.16;104829;1266;61814;-77
2023/11/14 03:27:43;;;;;;;68.70;35.70;;;;;;;5.11;100.00;100613.23;104689;1270;214498;-76
2023/11/14 03:30:11;;;;;;;80.80;40.10;;;;;;;5.09;100.00;100621.25;104910;1266;60739;-76
2023/11/14 03:32:40;;;;;;;65.40;35.50;;;;;;;5.08;100.00;100624.94;105008;1262;60595;-76
2023/11/14 03:35:09;;;;;;;68.70;33.90;;;;;;;5.07;100.00;100624.97;105002;1262;71095;-77
2023/11/14 03:37:39;;;;;;;41.10;24.30;;;;;;;5.05;100.00;100621.76;105025;1262;62554;-78
2023/11/14 03:40:07;;;;;;;71.40;40.80;;;;;;;5.05;100.00;100619.16;105026;1262;71527;-77
2023/11/14 03:42:35;;;;;;;40.50;22.90;;;;;;;5.05;100.00;100611.88;104955;1268;60820;-78
2023/11/14 03:45:04;;;;;;;64.60;31.20;;;;;;;5.04;100.00;100608.14;105575;1261;59640;-77
2023/11/14 03:47:31;;;;;;;63.10;33.30;;;;;;;5.03;100.00;100602.10;105342;1255;72902;-79
2023/11/14 03:49:59;;;;;;;64.20;34.70;;;;;;;5.00;100.00;100603.05;105335;1259;63677;-78
2023/11/14 03:52:27;;;;;;;78.70;41.80;;;;;;;4.99;100.00;100605.48;105287;1256;72459;-77
2023/11/14 03:54:55;;;;;;;82.60;43.20;;;;;;;5.00;100.00;100606.67;105288;1259;60390;-77
2023/11/14 03:57:23;;;;;;;79.10;42.70;;;;;;;5.02;100.00;100609.93;105261;1262;59681;-76
2023/11/14 03:59:51;;;;;;;71.00;37.50;;;;;;;5.02;100.00;100601.94;105489;1256;71817;-77
2023/11/14 04:02:18;;;;;;;83.90;41.40;;;;;;;5.02;100.00;100596.04;105388;1260;63569;-77
2023/11/14 04:04:46;;;;;;;82.80;41.10;;;;;;;5.01;100.00;100594.70;105300;1256;71575;-78
2023/11/14 04:07:14;;;;;;;85.10;42.80;;;;;;;4.97;100.00;100597.25;105410;1257;60884;-78
2023/11/14 04:09:42;;;;;;;96.50;47.60;;;;;;;4.91;100.00;100597.16;105639;1256;59852;-79
2023/11/14 04:12:12;;;;;;;94.20;45.40;;;;;;;4.86;100.00;100594.73;105660;1256;71808;-74
2023/11/14 04:14:40;;;;;;;51.10;28.40;;;;;;;4.82;100.00;100598.34;106584;1254;63593;-78
2023/11/14 04:17:07;;;;;;;79.10;46.60;;;;;;;4.77;100.00;100596.09;105589;1257;72631;-77
2023/11/14 04:19:35;;;;;;;54.80;32.50;;;;;;;4.73;100.00;100595.89;105590;1259;61873;-79
2023/11/14 04:22:03;;;;;;;46.20;25.00;;;;;;;4.71;100.00;100597.53;105440;1259;60994;-79
2023/11/14 04:24:31;;;;;;;50.80;27.50;;;;;;;4.69;100.00;100593.09;105614;1254;73502;-78
2023/11/14 04:26:59;;;;;;;46.20;25.50;;;;;;;4.69;100.00;100593.44;105612;1259;63562;-76
2023/11/14 04:29:28;;;;;;;50.30;27.10;;;;;;;4.68;100.00;100588.83;105510;1259;72664;-75
2023/11/14 04:43:54;;;;;;;48.10;28.50;;;;;;;4.83;100.00;100603.33;102588;1297;600004;-79
2023/11/14 04:46:23;;;;;;;47.60;25.70;;;;;;;4.87;100.00;100601.48;104943;1267;59657;-76
2023/11/14 04:48:51;;;;;;;36.70;20.70;;;;;;;4.91;100.00;100604.94;104795;1267;60239;-78
2023/11/14 04:51:19;;;;;;;30.00;19.20;;;;;;;4.95;100.00;100608.95;104875;1269;71681;-77
2023/11/14 04:53:46;;;;;;;26.20;16.80;;;;;;;4.98;100.00;100616.30;104969;1267;63776;-79
2023/11/14 04:56:15;;;;;;;26.90;17.70;;;;;;;5.01;100.00;100617.25;104995;1267;72529;-78
2023/11/14 04:58:43;;;;;;;23.50;15.90;;;;;;;5.03;100.00;100614.92;105028;1260;232388;-80
2023/11/14 05:01:11;;;;;;;28.70;16.60;;;;;;;5.04;100.00;100617.81;105185;1264;59445;-78
2023/11/14 05:03:39;;;;;;;22.70;15.00;;;;;;;5.06;100.00;100619.97;105577;1254;72345;-80
2023/11/14 05:06:07;;;;;;;36.50;21.50;;;;;;;5.08;100.00;100627.70;105643;1260;64326;-77
2023/11/14 05:08:35;;;;;;;33.70;19.00;;;;;;;5.10;100.00;100629.39;105503;1260;72638;-77
2023/11/14 05:11:06;;;;;;;26.80;17.80;;;;;;;5.11;100.00;100628.83;105490;1254;61251;-78
2023/11/14 05:13:36;;;;;;;23.00;15.60;;;;;;;5.10;100.00;100630.07;105674;1254;60251;-78
2023/11/14 05:16:04;;;;;;;24.80;15.90;;;;;;;5.09;100.00;100629.93;105799;1259;73135;-77
2023/11/14 05:18:46;;;;;;;22.70;14.90;;;;;;;5.08;100.00;100634.63;105797;1262;63832;-77
2023/11/14 05:21:13;;;;;;;24.50;14.30;;;;;;;5.07;100.00;100638.31;105726;1254;72526;-77
2023/11/14 05:23:41;;;;;;;22.10;14.30;;;;;;;5.07;100.00;100637.45;105726;1254;59690;-77
2023/11/14 05:26:09;;;;;;;24.60;13.80;;;;;;;5.06;100.00;100640.23;105692;1254;59637;-78
2023/11/14 05:28:37;;;;;;;19.00;13.80;;;;;;;5.06;100.00;100642.66;105728;1254;72679;-77
2023/11/14 05:31:07;;;;;;;21.90;14.90;;;;;;;5.06;100.00;100647.35;105799;1254;63592;-77
2023/11/14 05:33:35;;;;;;;18.50;13.50;;;;;;;5.04;100.00;100648.98;105852;1254;72734;-76
2023/11/14 05:36:03;;;;;;;23.30;14.00;;;;;;;5.02;100.00;100655.14;105949;1254;60837;-78
2023/11/14 05:38:30;;;;;;;22.40;14.00;;;;;;;4.98;100.00;100650.93;105942;1256;60026;-80
2023/11/14 05:40:58;;;;;;;24.80;14.30;;;;;;;4.96;100.00;100646.34;105689;1257;73105;-79
2023/11/14 05:43:31;;;;;;;21.50;13.60;;;;;;;4.93;100.00;100646.45;105952;1253;63566;-76
2023/11/14 05:46:03;;;;;;;22.60;14.40;;;;;;;4.89;100.00;100642.44;107768;1253;71105;-77
2023/11/14 05:48:32;;;;;;;19.30;13.80;;;;;;;4.87;100.00;100647.90;108992;1253;59930;-77
2023/11/14 05:51:03;;;;;;;22.70;13.60;;;;;;;4.86;100.00;100645.69;107223;1254;59682;-78
2023/11/14 05:53:31;;;;;;;20.40;13.90;;;;;;;4.86;100.00;100655.71;105829;1254;73245;-77
2023/11/14 05:55:58;;;;;;;21.60;14.00;;;;;;;4.87;100.00;100656.21;105707;1257;62433;-78
2023/11/14 05:58:26;;;;;;;24.40;14.30;;;;;;;4.88;100.00;100657.21;105679;1257;72685;-78
2023/11/14 06:00:54;;;;;;;23.70;15.60;;;;;;;4.89;100.00;100654.91;105716;1257;60815;-79
2023/11/14 06:03:21;;;;;;;24.20;14.40;;;;;;;4.90;100.00;100652.63;105766;1254;59753;-80
2023/11/14 06:05:49;;;;;;;24.30;15.90;;;;;;;4.91;100.00;100643.40;105759;1257;73111;-78
2023/11/14 06:08:17;;;;;;;21.80;15.40;;;;;;;4.93;100.00;100644.87;105812;1257;62453;-77
2023/11/14 06:10:45;;;;;;;19.80;13.60;;;;;;;4.94;100.00;100649.18;105829;1256;71611;-78
2023/11/14 06:13:13;;;;;;;20.40;13.70;;;;;;;4.94;100.00;100650.03;105859;1254;59940;-78
2023/11/14 06:15:40;;;;;;;24.10;13.90;;;;;;;4.95;100.00;100648.45;105878;1255;60146;-77
2023/11/14 06:18:08;;;;;;;18.60;12.20;;;;;;;4.95;100.00;100648.79;105777;1251;72788;-79
2023/11/14 06:20:36;;;;;;;21.30;14.20;;;;;;;4.97;100.00;100654.63;105961;1257;63259;-78
2023/11/14 06:23:03;;;;;;;20.40;14.50;;;;;;;4.99;100.00;100656.45;106000;1251;71760;-79
2023/11/14 06:25:31;;;;;;;22.10;14.50;;;;;;;5.02;100.00;100650.14;105962;1252;61075;-79
2023/11/14 06:27:59;;;;;;;20.10;14.30;;;;;;;5.04;100.00;100648.31;105825;1254;59868;-77
2023/11/14 06:30:26;;;;;;;25.10;15.90;;;;;;;5.07;100.00;100646.98;105912;1256;73067;-78
2023/11/14 06:44:49;;;;;;;20.40;14.20;;;;;;;5.33;100.00;100627.29;102693;1292;600623;-78
2023/11/14 06:47:16;;;;;;;18.00;13.40;;;;;;;5.38;100.00;100628.68;105121;1269;59692;-79
2023/11/14 06:49:44;;;;;;;19.20;13.70;;;;;;;5.43;100.00;100635.56;105771;1269;59282;-78
2023/11/14 06:52:12;;;;;;;18.70;12.80;;;;;;;5.49;100.00;100638.64;104901;1272;72327;-77
2023/11/14 06:54:39;;;;;;;19.90;14.10;;;;;;;5.55;100.00;100630.08;105035;1270;63571;-77
2023/11/14 06:57:10;;;;;;;19.40;13.30;;;;;;;5.61;100.00;100637.66;105039;1269;72803;-78
2023/11/14 06:59:38;;;;;;;24.30;12.60;;;;;;;5.66;100.00;100635.71;104912;1271;212364;-79
2023/11/14 07:02:07;;;;;;;19.50;12.70;;;;;;;5.71;100.00;100633.95;105198;1263;60168;-77
2023/11/14 07:04:38;;;;;;;15.30;11.90;;;;;;;5.77;100.00;100638.06;108891;1263;71703;-78
2023/11/14 07:07:06;;;;;;;15.90;12.30;;;;;;;5.84;100.00;100635.55;108932;1263;62565;-77
2023/11/14 07:09:34;;;;;;;12.70;10.50;;;;;;;5.90;100.00;100630.60;108895;1262;72436;-76
2023/11/14 07:12:02;;;;;;;21.60;12.40;;;;;;;5.96;100.00;100623.96;108920;1261;59876;-77
2023/11/14 07:14:29;;;;;;;15.80;11.10;;;;;;;6.02;100.00;100623.06;109720;1251;59152;-77
2023/11/14 07:16:57;;;;;;;13.20;10.50;;;;;;;6.08;100.00;100629.57;109676;1251;71553;-80
2023/11/14 07:19:25;;;;;;;12.90;10.00;;;;;;;6.14;100.00;100628.93;109767;1251;63990;-78
2023/11/14 07:21:52;;;;;;;15.20;10.80;;;;;;;6.22;100.00;100628.30;109791;1251;71379;-77
2023/11/14 07:24:20;;;;;;;15.30;10.90;;;;;;;6.28;100.00;100625.59;109735;1251;59667;-77
2023/11/14 07:26:49;;;;;;;15.40;11.00;;;;;;;6.36;100.00;100626.83;109722;1250;60089;-77
2023/11/14 07:29:19;;;;;;;16.20;10.90;;;;;;;6.43;100.00;100632.63;109521;1252;71803;-78
2023/11/14 07:31:47;;;;;;;14.70;10.30;;;;;;;6.48;100.00;100641.44;109730;1251;62316;-78
2023/11/14 07:34:14;;;;;;;13.00;9.70;;;;;;;6.53;100.00;100631.13;109762;1251;72751;-78
2023/11/14 07:36:42;;;;;;;12.70;8.70;;;;;;;6.60;100.00;100629.95;109727;1250;59654;-79
2023/11/14 07:39:10;;;;;;;16.70;9.60;;;;;;;6.66;100.00;100622.42;109748;1251;59930;-77
2023/11/14 07:41:38;;;;;;;13.80;9.70;;;;;;;6.70;100.00;100624.48;109690;1252;72873;-76
2023/11/14 07:44:06;;;;;;;13.10;9.80;;;;;;;6.75;100.00;100625.52;109660;1251;62766;-76
2023/11/14 07:46:34;;;;;;;12.50;9.30;;;;;;;6.79;100.00;100629.12;109699;1251;71456;-79
2023/11/14 07:49:01;;;;;;;14.50;10.10;;;;;;;6.85;100.00;100630.46;109683;1250;63019;-77
2023/11/14 07:51:29;;;;;;;17.20;10.20;;;;;;;6.92;100.00;100634.50;109715;1250;60969;-77
2023/11/14 07:53:57;;;;;;;13.00;9.40;;;;;;;6.98;100.00;100637.32;109700;1250;72904;-76
2023/11/14 07:56:25;;;;;;;13.60;9.20;;;;;;;7.06;100.00;100638.88;109689;1250;62253;-76
2023/11/14 07:58:53;;;;;;;12.90;9.10;;;;;;;7.14;100.00;100636.64;109711;1251;70819;-76
2023/11/14 08:01:21;;;;;;;13.10;8.20;;;;;;;7.21;100.00;100633.54;109708;1251;60022;-79
2023/11/14 08:03:49;;;;;;;20.00;12.00;;;;;;;7.28;100.00;100630.77;109747;1254;58874;-76
2023/11/14 08:06:17;;;;;;;17.10;9.40;;;;;;;7.39;100.00;100625.41;109711;1251;73010;-79
2023/11/14 08:08:46;;;;;;;16.00;9.70;;;;;;;7.52;100.00;100626.32;109713;1251;64048;-77
2023/11/14 08:11:13;;;;;;;16.80;8.90;;;;;;;7.67;100.00;100624.40;109721;1250;72921;-76
2023/11/14 08:13:41;;;;;;;14.50;9.40;;;;;;;7.79;100.00;100627.49;109711;1251;58795;-80
2023/11/14 08:16:09;;;;;;;12.10;9.00;;;;;;;7.91;100.00;100628.33;109749;1250;62046;-78
2023/11/14 08:18:38;;;;;;;12.10;9.60;;;;;;;7.98;100.00;100625.87;109682;1251;71785;-77
2023/11/14 08:21:09;;;;;;;12.00;8.20;;;;;;;8.01;100.00;100626.23;109710;1251;63744;-76
2023/11/14 08:23:40;;;;;;;10.50;8.10;;;;;;;8.03;100.00;100619.20;109679;1251;72511;-78
2023/11/14 08:26:10;;;;;;;10.40;8.00;;;;;;;8.04;100.00;100616.17;109717;1251;61124;-77
2023/11/14 08:28:39;;;;;;;16.30;8.60;;;;;;;8.06;100.00;100618.36;109726;1250;60047;-76
2023/11/14 08:31:08;;;;;;;12.50;8.60;;;;;;;8.08;100.00;100619.63;109720;1251;73104;-79
2023/11/14 08:33:38;;;;;;;12.30;9.30;;;;;;;8.13;100.00;100619.77;109752;1251;62562;-79
2023/11/14 08:39:21;;;;;;;14.60;9.30;;;;;;;8.18;100.00;100611.11;106027;1285;603998;-78
2023/11/14 08:41:48;;;;;;;19.40;10.90;;;;;;;8.21;100.00;100608.18;105282;1263;61206;-77
2023/11/14 08:44:15;;;;;;;13.90;9.40;;;;;;;8.26;100.00;100606.38;105111;1264;60328;-77
2023/11/14 08:46:42;;;;;;;17.40;9.60;;;;;;;8.29;100.00;100603.42;105658;1256;72328;-79
2023/11/14 08:49:10;;;;;;;14.70;9.10;;;;;;;8.32;100.00;100603.14;105581;1257;61909;-78
2023/11/14 08:51:38;;;;;;;14.60;9.30;;;;;;;8.33;100.00;100603.08;105592;1253;224367;-78
2023/11/14 08:54:06;;;;;;;13.20;9.00;;;;;;;8.34;100.00;100605.65;105807;1257;61039;-76
2023/11/14 08:56:33;;;;;;;11.70;8.40;;;;;;;8.35;100.00;100603.81;105748;1253;60350;-78
2023/11/14 08:59:01;;;;;;;15.00;7.90;;;;;;;8.38;100.00;100601.39;105749;1253;72382;-78
2023/11/14 09:01:28;;;;;;;11.10;7.30;;;;;;;8.42;100.00;100596.88;105783;1259;63670;-77
2023/11/14 09:03:55;;;;;;;9.00;7.70;;;;;;;8.46;100.00;100594.56;105852;1254;72742;-77
2023/11/14 09:06:24;;;;;;;11.10;8.50;;;;;;;8.53;100.00;100589.03;105902;1258;61062;-76
2023/11/14 09:08:52;;;;;;;8.60;7.30;;;;;;;8.58;100.00;100583.15;105871;1254;59677;-77
2023/11/14 09:11:20;;;;;;;10.80;8.30;;;;;;;8.62;100.00;100576.48;105718;1253;71431;-81
2023/11/14 09:13:47;;;;;;;10.60;8.30;;;;;;;8.67;100.00;100575.38;105704;1254;64075;-78
2023/11/14 09:16:17;;;;;;;11.50;9.00;;;;;;;8.71;100.00;100579.15;105680;1258;71632;-80
2023/11/14 09:18:45;;;;;;;11.50;8.60;;;;;;;8.77;100.00;100577.11;105718;1256;60346;-80
2023/11/14 09:21:13;;;;;;;11.40;8.20;;;;;;;8.83;100.00;100579.23;105658;1254;60220;-76
2023/11/14 09:23:40;;;;;;;9.40;8.40;;;;;;;8.90;100.00;100578.52;105658;1254;71636;-79
2023/11/14 09:26:10;;;;;;;15.30;9.90;;;;;;;8.95;100.00;100572.31;105783;1257;63841;-78
2023/11/14 09:28:40;;;;;;;13.60;9.10;;;;;;;9.02;100.00;100564.61;105703;1253;73820;-77
2023/11/14 09:31:08;;;;;;;11.60;8.70;;;;;;;9.10;100.00;100567.16;105688;1257;60587;-77
2023/11/14 09:33:35;;;;;;;8.30;6.80;;;;;;;9.19;100.00;100564.74;106135;1253;59615;-77
2023/11/14 09:36:04;;;;;;;11.80;7.50;;;;;;;9.28;100.00;100562.64;105876;1251;73358;-77
2023/11/14 09:38:31;;;;;;;11.20;7.90;;;;;;;9.37;100.00;100562.53;106084;1256;64189;-78
2023/11/14 09:41:02;;;;;;;11.60;8.90;;;;;;;9.43;100.00;100560.77;106041;1249;72026;-77
2023/11/14 09:43:30;;;;;;;9.90;8.50;;;;;;;9.47;100.00;100554.44;105818;1251;62041;-78
2023/11/14 09:45:59;;;;;;;11.50;8.20;;;;;;;9.53;100.00;100550.94;106103;1251;60203;-78
2023/11/14 09:48:27;;;;;;;9.70;8.40;;;;;;;9.62;100.00;100546.45;106164;1249;72897;-78
2023/11/14 09:50:54;;;;;;;10.20;8.30;;;;;;;9.72;100.00;100544.29;106001;1250;63673;-79
2023/11/14 09:53:27;;;;;;;9.20;7.10;;;;;;;9.86;100.00;100536.33;106119;1253;72581;-76
2023/11/14 09:55:54;;;;;;;10.20;7.40;;;;;;;10.08;100.00;100529.64;106130;1250;63137;-76
2023/11/14 09:58:22;;;;;;;9.10;6.70;;;;;;;10.27;100.00;100519.42;105948;1256;60067;-76
2023/11/14 10:00:49;;;;;;;9.50;7.20;;;;;;;10.38;100.00;100521.44;106033;1251;72130;-76
2023/11/14 10:03:19;;;;;;;9.20;7.90;;;;;;;10.44;100.00;100516.16;106031;1251;62564;-78
2023/11/14 10:05:48;;;;;;;10.20;7.50;;;;;;;10.55;100.00;100508.80;106266;1253;71626;-78
2023/11/14 10:08:15;;;;;;;8.20;7.10;;;;;;;10.72;100.00;100509.70;105980;1253;63749;-78
2023/11/14 10:11:09;;;;;;;12.30;7.50;;;;;;;10.92;100.00;100500.92;106019;1249;59668;-78
2023/11/14 10:13:37;;;;;;;8.80;6.80;;;;;;;11.16;100.00;100504.13;106038;1250;73574;-78
2023/11/14 10:16:14;;;;;;;12.20;7.20;;;;;;;11.26;100.00;100505.39;106036;1253;64264;-77
2023/11/14 10:18:41;;;;;;;12.00;8.20;;;;;;;11.28;100.00;100508.10;106023;1250;72008;-79
2023/11/14 10:21:28;;;;;;;10.70;8.40;;;;;;;11.22;100.00;100502.88;105995;1253;62018;-79
2023/11/14 10:24:10;;;;;;;9.10;7.70;;;;;;;11.15;100.00;100499.10;106331;1250;59717;-76
2023/11/14 10:26:52;;;;;;;10.10;7.60;;;;;;;11.11;100.00;100497.11;106233;1250;72846;-77
2023/11/14 10:29:20;;;;;;;13.70;9.20;;;;;;;11.07;100.00;100494.70;106186;1251;62582;-78
2023/11/14 10:31:48;;;;;;;10.80;6.80;;;;;;;11.01;100.00;100494.04;105995;1255;72898;-77
2023/11/14 10:34:30;;;;;;;6.80;5.50;;;;;;;10.94;100.00;100489.92;106015;1250;61183;-77
2023/11/14 10:36:59;;;;;;;7.20;5.40;;;;;;;10.87;100.00;100481.51;106054;1253;60053;-73
2023/11/14 10:39:26;;;;;;;9.00;6.10;;;;;;;10.82;100.00;100472.15;105866;1256;73016;-75
2023/11/14 10:41:53;;;;;;;8.70;5.90;;;;;;;10.80;100.00;100472.29;105996;1253;63004;-76
2023/11/14 10:44:20;;;;;;;6.60;5.20;;;;;;;10.77;100.00;100470.73;106094;1251;70400;-77
2023/11/14 10:46:51;;;;;;;6.70;5.20;;;;;;;10.74;100.00;100470.04;106007;1250;61781;-78
2023/11/14 10:49:19;;;;;;;8.00;5.40;;;;;;;10.74;100.00;100466.92;105875;1250;60199;-76
2023/11/14 10:51:48;;;;;;;6.90;4.70;;;;;;;10.73;100.00;100465.23;106089;1253;71027;-76
2023/11/14 10:54:15;;;;;;;6.00;5.00;;;;;;;10.74;100.00;100462.55;106107;1250;63996;-76
2023/11/14 10:56:42;;;;;;;9.50;4.80;;;;;;;10.77;100.00;100461.81;106014;1251;71961;-76
2023/11/14 10:59:19;;;;;;;7.00;4.40;;;;;;;10.79;100.00;100461.52;106048;1250;62239;-78
2023/11/14 11:01:46;;;;;;;7.50;4.40;;;;;;;10.80;100.00;100462.01;105848;1250;60922;-77
2023/11/14 11:04:17;;;;;;;6.80;5.20;;;;;;;10.76;100.00;100461.02;106030;1251;71769;-80
2023/11/14 11:06:45;;;;;;;7.60;5.10;;;;;;;10.70;100.00;100464.34;106102;1250;63016;-77
2023/11/14 11:09:15;;;;;;;9.70;5.80;;;;;;;10.66;100.00;100462.69;106082;1253;72679;-75
2023/11/14 11:11:50;;;;;;;8.50;5.60;;;;;;;10.63;100.00;100469.15;105938;1250;60449;-77
2023/11/14 11:14:18;;;;;;;8.60;5.60;;;;;;;10.61;100.00;100464.58;106487;1249;60407;-75
2023/11/14 11:16:52;;;;;;;6.90;5.80;;;;;;;10.58;100.00;100472.29;107400;1251;73148;-76
2023/11/14 11:19:24;;;;;;;6.30;5.10;;;;;;;10.53;100.00;100467.20;106663;1250;63786;-77
2023/11/14 11:22:06;;;;;;;5.70;4.60;;;;;;;10.49;100.00;100468.31;106685;1253;73586;-75
2023/11/14 11:24:33;;;;;;;6.60;5.00;;;;;;;10.47;100.00;100468.80;109193;1249;59957;-78
2023/11/14 11:27:19;;;;;;;6.90;4.80;;;;;;;10.43;100.00;100467.84;108714;1249;59308;-78
2023/11/14 11:29:57;;;;;;;6.10;5.40;;;;;;;10.39;100.00;100466.29;106123;1250;71952;-76
2023/11/14 11:32:28;;;;;;;6.50;5.00;;;;;;;10.34;100.00;100462.73;106039;1253;63068;-79
2023/11/14 11:35:21;;;;;;;6.50;5.80;;;;;;;10.33;100.00;100461.92;106013;1253;72385;-78
2023/11/14 11:37:53;;;;;;;6.90;5.60;;;;;;;10.31;100.00;100458.57;106040;1249;60961;-77
2023/11/14 11:40:25;;;;;;;5.50;5.00;;;;;;;10.29;100.00;100456.95;106060;1250;60310;-77
2023/11/14 11:43:12;;;;;;;7.90;5.40;;;;;;;10.22;100.00;100450.35;106063;1253;72677;-78
2023/11/14 11:45:41;;;;;;;7.10;5.50;;;;;;;10.12;100.00;100443.96;105995;1250;62770;-78
2023/11/14 11:48:24;;;;;;;6.30;5.30;;;;;;;10.03;100.00;100440.83;106477;1251;71528;-77
2023/11/14 11:50:52;;;;;;;6.30;5.50;;;;;;;9.95;100.00;100433.28;105978;1255;61132;-77
2023/11/14 11:53:41;;;;;;;6.80;5.70;;;;;;;9.91;100.00;100423.40;105952;1255;59742;-78
2023/11/14 11:56:12;;;;;;;10.40;6.90;;;;;;;9.87;100.00;100412.46;105912;1251;72025;-76
2023/11/14 11:58:49;;;;;;;10.10;7.00;;;;;;;9.85;100.00;100406.14;105982;1256;63756;-80
2023/11/14 12:01:17;;;;;;;11.00;6.30;;;;;;;9.82;100.00;100404.39;106129;1251;72665;-79
2023/11/14 12:03:44;;;;;;;8.40;6.70;;;;;;;9.78;100.00;100394.36;106002;1255;60827;-78
2023/11/14 12:06:13;;;;;;;9.00;7.10;;;;;;;9.72;100.00;100383.52;105982;1250;60339;-80
2023/11/14 12:08:41;;;;;;;7.70;6.80;;;;;;;9.68;100.00;100374.52;105800;1257;73377;-79
2023/11/14 12:11:14;;;;;;;8.50;6.20;;;;;;;9.65;100.00;100373.31;106022;1253;63853;-79
2023/11/14 12:13:42;;;;;;;8.00;6.60;;;;;;;9.63;100.00;100367.50;106023;1251;72455;-80
2023/11/14 12:16:09;;;;;;;8.60;6.80;;;;;;;9.63;100.00;100360.19;105989;1256;63242;-78
2023/11/14 12:18:37;;;;;;;9.90;7.60;;;;;;;9.63;100.00;100357.52;106046;1251;59744;-80
2023/11/14 12:21:05;;;;;;;8.00;6.80;;;;;;;9.64;100.00;100349.29;105977;1251;72764;-80
2023/11/14 12:23:32;;;;;;;12.40;7.20;;;;;;;9.63;100.00;100345.65;105885;1256;65027;-77
2023/11/14 12:25:59;;;;;;;11.20;7.60;;;;;;;9.64;100.00;100343.34;106049;1253;73569;-79
2023/11/14 12:28:27;;;;;;;8.30;7.00;;;;;;;9.65;100.00;100337.02;105944;1253;61262;-77
2023/11/14 12:30:59;;;;;;;9.90;7.60;;;;;;;9.66;100.00;100336.05;105865;1250;61338;-79
2023/11/14 12:33:29;;;;;;;11.70;8.30;;;;;;;9.68;100.00;100343.43;106410;1250;72948;-78
2023/11/14 12:35:59;;;;;;;11.60;7.90;;;;;;;9.69;100.00;100345.15;105886;1256;63067;-79
2023/11/14 12:38:37;;;;;;;9.60;8.20;;;;;;;9.68;100.00;100343.80;105558;1255;71471;-79
2023/11/14 12:41:29;;;;;;;13.10;8.10;;;;;;;9.67;100.00;100334.63;105648;1254;61095;-76
2023/11/14 12:43:58;;;;;;;9.80;7.80;;;;;;;9.66;100.00;100325.61;105605;1255;59883;-77
2023/11/14 12:46:36;;;;;;;13.10;10.00;;;;;;;9.67;100.00;100323.42;105652;1256;73342;-75
2023/11/14 12:49:14;;;;;;;12.60;9.60;;;;;;;9.65;100.00;100324.40;105571;1259;64561;-78
2023/11/14 12:51:43;;;;;;;12.00;8.30;;;;;;;9.63;100.00;100318.96;105532;1258;71518;-76
2023/11/14 12:54:11;;;;;;;10.70;8.70;;;;;;;9.60;100.00;100319.16;105654;1255;61079;-78
2023/11/14 12:56:38;;;;;;;13.00;8.90;;;;;;;9.56;100.00;100325.98;105636;1258;60964;-77
2023/11/14 12:59:10;;;;;;;19.60;12.00;;;;;;;9.53;100.00;100320.58;105376;1255;73222;-79
2023/11/14 13:01:38;;;;;;;14.80;9.20;;;;;;;9.50;100.00;100318.15;105633;1259;63766;-79
2023/11/14 13:04:06;;;;;;;12.40;7.90;;;;;;;9.49;100.00;100312.50;105905;1260;72953;-79
2023/11/14 13:06:40;;;;;;;13.80;9.70;;;;;;;9.46;100.00;100306.20;105788;1255;60871;-77
2023/11/14 13:09:08;;;;;;;12.60;8.20;;;;;;;9.44;100.00;100306.14;107392;1254;60434;-78
2023/11/14 13:11:35;;;;;;;18.40;10.10;;;;;;;9.43;100.00;100306.54;106975;1255;72732;-75
2023/11/14 13:14:03;;;;;;;14.70;10.30;;;;;;;9.42;100.00;100311.02;106022;1258;63962;-76
2023/11/14 13:16:30;;;;;;;16.10;11.10;;;;;;;9.41;100.00;100309.82;105552;1258;72559;-78
2023/11/14 13:18:57;;;;;;;14.20;9.80;;;;;;;9.39;100.00;100309.23;105554;1258;62158;-77
2023/11/14 13:21:25;;;;;;;13.30;8.50;;;;;;;9.39;100.00;100311.88;105718;1254;60688;-76
2023/11/14 13:23:53;;;;;;;14.80;9.60;;;;;;;9.37;100.00;100314.25;105535;1258;73937;-77
2023/11/14 13:26:23;;;;;;;12.60;9.30;;;;;;;9.36;100.00;100319.40;105525;1257;63115;-77
2023/11/14 13:28:51;;;;;;;15.00;9.70;;;;;;;9.32;100.00;100318.16;105639;1255;72812;-77
2023/11/14 13:31:19;;;;;;;15.50;9.70;;;;;;;9.31;100.00;100321.73;105505;1256;61874;-76
2023/11/14 13:33:46;;;;;;;10.20;8.10;;;;;;;9.29;100.00;100326.75;105852;1250;61705;-77
2023/11/14 13:36:16;;;;;;;9.30;6.90;;;;;;;9.28;100.00;100324.21;106026;1250;72377;-76
2023/11/14 13:38:44;;;;;;;12.20;9.00;;;;;;;9.27;100.00;100317.63;106214;1251;63921;-75
2023/11/14 13:41:11;;;;;;;15.40;11.80;;;;;;;9.25;100.00;100312.53;106398;1250;71505;-76
2023/11/14 13:43:42;;;;;;;17.10;12.40;;;;;;;9.22;100.00;100312.35;106312;1251;61551;-78
2023/11/14 13:46:10;;;;;;;18.60;12.20;;;;;;;9.20;100.00;100303.06;106437;1253;60438;-79
2023/11/14 13:48:50;;;;;;;15.90;10.70;;;;;;;9.17;100.00;100301.48;106007;1253;75205;-76
2023/11/14 13:51:21;;;;;;;13.40;8.20;;;;;;;9.14;100.00;100292.43;106129;1251;63887;-75
2023/11/14 13:53:50;;;;;;;13.80;8.70;;;;;;;9.10;100.00;100278.67;106069;1253;73733;-78
2023/11/14 13:56:19;;;;;;;10.30;7.50;;;;;;;9.07;100.00;100277.66;106275;1253;62025;-77
2023/11/14 13:58:46;;;;;;;9.60;6.70;;;;;;;9.03;100.00;100269.71;106149;1251;60434;-78
2023/11/14 14:01:14;;;;;;;10.10;7.20;;;;;;;8.99;100.00;100271.30;106129;1250;74467;-78
2023/11/14 14:03:41;;;;;;;9.50;7.80;;;;;;;8.96;100.00;100265.06;106105;1253;63575;-77
2023/11/14 14:06:08;;;;;;;10.20;7.20;;;;;;;8.92;100.00;100266.33;106184;1250;73764;-78
2023/11/14 14:08:36;;;;;;;9.80;7.20;;;;;;;8.88;100.00;100267.62;106488;1253;62058;-75
2023/11/14 14:11:06;;;;;;;10.70;6.10;;;;;;;8.82;100.00;100263.59;108251;1249;60494;-77
2023/11/14 14:13:39;;;;;;;9.70;6.40;;;;;;;8.76;100.00;100259.09;109237;1249;72724;-77
2023/11/14 14:16:07;;;;;;;8.30;5.70;;;;;;;8.69;100.00;100256.33;106307;1253;64377;-77
2023/11/14 14:18:38;;;;;;;10.70;6.30;;;;;;;8.62;100.00;100254.48;106049;1250;73700;-77
2023/11/14 14:21:06;;;;;;;6.50;4.80;;;;;;;8.55;100.00;100242.71;105959;1250;62231;-77
2023/11/14 14:23:34;;;;;;;7.10;5.90;;;;;;;8.47;100.00;100239.63;106082;1253;60520;-74
2023/11/14 14:26:04;;;;;;;8.40;5.30;;;;;;;8.41;100.00;100236.86;106113;1253;73592;-76
2023/11/14 14:28:33;;;;;;;9.60;6.60;;;;;;;8.33;100.00;100230.17;106123;1253;62971;-75
2023/11/14 14:31:07;;;;;;;10.30;6.40;;;;;;;8.25;100.00;100222.56;106221;1250;73669;-77
2023/11/14 14:33:35;;;;;;;9.00;6.70;;;;;;;8.20;100.00;100210.68;106075;1253;61262;-79
2023/11/14 14:36:02;;;;;;;8.60;6.90;;;;;;;8.16;100.00;100202.72;105823;1256;60592;-77
2023/11/14 14:38:30;;;;;;;14.80;7.20;;;;;;;8.12;100.00;100200.84;106036;1251;74080;-78
2023/11/14 14:40:57;;;;;;;11.20;8.70;;;;;;;8.08;100.00;100194.11;106040;1253;62958;-78
2023/11/14 14:43:27;;;;;;;15.60;10.20;;;;;;;8.05;100.00;100193.43;106010;1253;74339;-77
2023/11/14 14:45:54;;;;;;;21.20;14.00;;;;;;;8.01;100.00;100191.55;105994;1253;61432;-78
2023/11/14 14:48:23;;;;;;;10.80;7.20;;;;;;;7.97;100.00;100186.20;105971;1250;60536;-77
2023/11/14 14:50:51;;;;;;;9.50;7.90;;;;;;;7.94;100.00;100180.13;105906;1256;73502;-77
2023/11/14 14:53:19;;;;;;;13.30;8.70;;;;;;;7.90;100.00;100176.86;106049;1253;64157;-77